createdAt,value
2022-08-01T00:00:54.871Z,18.85
2022-08-01T00:03:22.654Z,18.86
2022-08-01T00:05:50.612Z,18.85
2022-08-01T00:08:18.348Z,18.87
2022-08-01T00:10:46.099Z,18.90
2022-08-01T00:13:13.869Z,18.88
2022-08-01T00:15:41.805Z,18.88
2022-08-01T00:18:22.010Z,18.87
2022-08-01T00:20:49.862Z,18.86
2022-08-01T00:23:17.682Z,18.88
2022-08-01T00:25:45.398Z,18.87
2022-08-01T00:28:14.606Z,18.88
2022-08-01T00:30:42.432Z,18.87
2022-08-01T00:33:10.287Z,18.88
2022-08-01T00:35:38.027Z,18.86
2022-08-01T00:38:05.756Z,18.84
2022-08-01T00:40:33.467Z,18.83
2022-08-01T00:43:01.996Z,18.80
2022-08-01T00:45:30.200Z,18.79
2022-08-01T00:47:58.148Z,18.79
2022-08-01T00:50:27.191Z,18.82
2022-08-01T00:52:57.485Z,18.85
2022-08-01T00:55:26.450Z,18.86
2022-08-01T00:58:03.013Z,18.88
2022-08-01T01:00:52.979Z,18.86
2022-08-01T01:03:55.971Z,18.81
2022-08-01T01:06:24.367Z,18.81
2022-08-01T01:09:13.895Z,18.79
2022-08-01T01:12:07.603Z,18.77
2022-08-01T01:14:48.002Z,18.72
2022-08-01T01:17:40.657Z,18.64
2022-08-01T01:20:14.537Z,18.54
2022-08-01T01:22:49.451Z,18.46
2022-08-01T01:25:35.970Z,18.38
2022-08-01T01:28:22.429Z,18.33
2022-08-01T01:30:52.550Z,18.26
2022-08-01T01:33:22.407Z,18.22
2022-08-01T01:35:54.078Z,18.19
2022-08-01T01:38:25.369Z,18.13
2022-08-01T01:40:53.875Z,18.08
2022-08-01T01:43:28.654Z,18.04
2022-08-01T01:46:02.910Z,17.98
2022-08-01T01:48:32.113Z,17.96
2022-08-01T01:51:00.321Z,17.94
2022-08-01T01:53:29.649Z,17.93
2022-08-01T01:55:58.983Z,17.92
2022-08-01T01:58:27.560Z,17.92
2022-08-01T02:00:56.818Z,17.93
2022-08-01T02:03:27.726Z,17.94
2022-08-01T02:05:56.374Z,17.89
2022-08-01T02:08:24.779Z,17.85
2022-08-01T02:11:13.465Z,17.81
2022-08-01T02:13:41.663Z,17.73
2022-08-01T02:16:12.183Z,17.69
2022-08-01T02:18:39.908Z,17.65
2022-08-01T02:21:12.864Z,17.59
2022-08-01T02:23:42.076Z,17.56
2022-08-01T02:26:12.048Z,17.54
2022-08-01T02:28:47.068Z,17.53
2022-08-01T02:31:18.691Z,17.53
2022-08-01T02:33:52.456Z,17.54
2022-08-01T02:36:29.787Z,17.54
2022-08-01T02:39:14.384Z,17.55
2022-08-01T02:41:44.605Z,17.56
2022-08-01T02:44:19.234Z,17.57
2022-08-01T02:46:54.967Z,17.57
2022-08-01T02:49:24.278Z,17.58
2022-08-01T02:51:53.947Z,17.59
2022-08-01T02:54:22.727Z,17.58
2022-08-01T02:56:51.314Z,17.58
2022-08-01T02:59:22.347Z,17.58
2022-08-01T03:01:51.385Z,17.59
2022-08-01T03:04:19.981Z,17.60
2022-08-01T03:06:48.555Z,17.63
2022-08-01T03:09:17.088Z,17.64
2022-08-01T03:11:47.015Z,17.69
2022-08-01T03:14:15.797Z,17.71
2022-08-01T03:16:45.822Z,17.74
2022-08-01T03:19:14.897Z,17.77
2022-08-01T03:21:44.475Z,17.79
2022-08-01T03:24:12.481Z,17.80
2022-08-01T03:26:41.106Z,17.80
2022-08-01T03:29:20.791Z,17.83
2022-08-01T03:31:49.320Z,17.85
2022-08-01T03:34:17.708Z,17.89
2022-08-01T03:36:51.480Z,17.93
2022-08-01T03:39:20.372Z,17.95
2022-08-01T03:41:56.803Z,18.01
2022-08-01T03:44:28.167Z,18.05
2022-08-01T03:47:01.157Z,18.09
2022-08-01T03:49:34.162Z,18.10
2022-08-01T03:52:04.054Z,18.13
2022-08-01T03:54:35.243Z,18.12
2022-08-01T03:57:03.560Z,18.12
2022-08-01T03:59:31.899Z,18.12
2022-08-01T04:02:00.146Z,18.12
2022-08-01T04:04:29.736Z,18.14
2022-08-01T04:06:57.547Z,18.18
2022-08-01T04:09:25.269Z,18.22
2022-08-01T04:11:53.866Z,18.30
2022-08-01T04:14:22.251Z,18.34
2022-08-01T04:16:50.063Z,18.40
2022-08-01T04:19:17.767Z,18.46
2022-08-01T04:21:45.697Z,18.53
2022-08-01T04:24:16.306Z,18.60
2022-08-01T04:26:45.834Z,18.67
2022-08-01T04:29:15.249Z,18.70
2022-08-01T04:31:45.433Z,18.75
2022-08-01T04:34:15.639Z,18.81
2022-08-01T04:36:43.907Z,18.88
2022-08-01T04:39:12.113Z,18.93
2022-08-01T04:41:41.133Z,18.98
2022-08-01T04:44:09.243Z,19.05
2022-08-01T04:46:37.971Z,19.09
2022-08-01T04:49:08.088Z,19.14
2022-08-01T04:51:36.446Z,19.16
2022-08-01T04:54:05.009Z,19.10
2022-08-01T04:56:35.179Z,19.09
2022-08-01T04:59:21.732Z,19.08
2022-08-01T05:01:51.278Z,19.06
2022-08-01T05:04:19.612Z,19.06
2022-08-01T05:06:47.394Z,19.07
2022-08-01T05:09:15.408Z,19.07
2022-08-01T05:11:44.229Z,19.10
2022-08-01T05:14:11.934Z,19.20
2022-08-01T05:16:39.583Z,19.30
2022-08-01T05:19:09.191Z,19.44
2022-08-01T05:21:38.325Z,19.59
2022-08-01T05:24:06.571Z,19.73
2022-08-01T05:26:34.359Z,19.88
2022-08-01T05:29:04.328Z,20.04
2022-08-01T05:31:35.229Z,20.09
2022-08-01T05:34:03.856Z,20.15
2022-08-01T05:36:31.608Z,20.24
2022-08-01T05:38:59.394Z,20.36
2022-08-01T05:41:27.656Z,20.52
2022-08-01T05:43:55.556Z,20.65
2022-08-01T05:46:23.529Z,20.72
2022-08-01T05:48:54.291Z,20.83
2022-08-01T05:51:22.213Z,20.80
2022-08-01T05:53:50.389Z,20.79
2022-08-01T05:56:19.018Z,20.86
2022-08-01T05:58:46.706Z,20.91
2022-08-01T06:01:14.553Z,20.96
2022-08-01T06:03:42.256Z,21.11
2022-08-01T06:06:10.060Z,21.29
2022-08-01T06:08:37.891Z,21.40
2022-08-01T06:11:06.417Z,21.52
2022-08-01T06:13:34.342Z,21.67
2022-08-01T06:16:17.276Z,21.83
2022-08-01T06:18:45.052Z,21.97
2022-08-01T06:21:12.720Z,22.08
2022-08-01T06:23:42.523Z,22.21
2022-08-01T06:26:11.207Z,22.31
2022-08-01T06:28:39.712Z,22.40
2022-08-01T06:31:07.610Z,22.41
2022-08-01T06:33:35.500Z,22.43
2022-08-01T06:36:03.899Z,22.51
2022-08-01T06:38:31.643Z,22.58
2022-08-01T06:40:59.385Z,22.73
2022-08-01T06:43:27.351Z,22.88
2022-08-01T06:45:55.518Z,22.99
2022-08-01T06:48:24.002Z,23.08
2022-08-01T06:51:09.122Z,23.24
2022-08-01T06:53:38.309Z,23.39
2022-08-01T06:56:07.210Z,23.57
2022-08-01T06:58:35.877Z,23.55
2022-08-01T07:01:08.036Z,23.23
2022-08-01T07:03:53.181Z,23.01
2022-08-01T07:06:23.729Z,23.25
2022-08-01T07:08:52.509Z,23.34
2022-08-01T07:11:20.977Z,23.37
2022-08-01T07:13:49.657Z,23.26
2022-08-01T07:16:18.347Z,23.36
2022-08-01T07:18:46.122Z,23.27
2022-08-01T07:21:39.340Z,23.53
2022-08-01T07:24:01.667Z,23.75
2022-08-01T07:26:29.527Z,23.47
2022-08-01T07:28:57.351Z,23.17
2022-08-01T07:31:28.352Z,23.25
2022-08-01T07:33:58.293Z,23.35
2022-08-01T07:36:26.069Z,23.29
2022-08-01T07:38:53.921Z,23.10
2022-08-01T07:41:21.713Z,22.92
2022-08-01T07:44:09.428Z,23.14
2022-08-01T07:46:37.694Z,23.47
2022-08-01T07:49:05.472Z,23.37
2022-08-01T07:51:33.270Z,23.47
2022-08-01T07:54:01.045Z,23.64
2022-08-01T07:56:29.434Z,23.71
2022-08-01T07:58:57.172Z,23.84
2022-08-01T08:01:24.972Z,23.61
2022-08-01T08:03:52.719Z,23.44
2022-08-01T08:06:20.767Z,23.44
2022-08-01T08:08:48.886Z,23.70
2022-08-01T08:11:16.778Z,23.67
2022-08-01T08:13:44.726Z,23.77
2022-08-01T08:16:12.446Z,24.15
2022-08-01T08:18:40.320Z,24.16
2022-08-01T08:21:08.844Z,24.03
2022-08-01T08:23:55.485Z,23.90
2022-08-01T08:26:24.758Z,23.83
2022-08-01T08:28:52.538Z,23.76
2022-08-01T08:31:24.965Z,23.92
2022-08-01T08:33:53.489Z,23.89
2022-08-01T08:36:21.569Z,23.82
2022-08-01T08:38:49.246Z,23.83
2022-08-01T08:41:21.130Z,23.90
2022-08-01T08:43:49.647Z,24.05
2022-08-01T08:46:17.937Z,24.22
2022-08-01T08:48:57.347Z,24.34
2022-08-01T08:51:31.682Z,24.35
2022-08-01T08:53:59.960Z,24.38
2022-08-01T08:56:30.795Z,24.40
2022-08-01T08:58:58.611Z,24.47
2022-08-01T09:01:26.726Z,24.49
2022-08-01T09:03:55.089Z,24.53
2022-08-01T09:06:23.208Z,24.55
2022-08-01T09:08:51.317Z,24.57
2022-08-01T09:11:22.688Z,24.74
2022-08-01T09:14:03.190Z,25.73
2022-08-01T09:16:32.577Z,28.08
2022-08-01T09:19:16.145Z,30.77
2022-08-01T09:22:00.488Z,33.64
2022-08-01T09:24:32.460Z,35.59
2022-08-01T09:27:03.447Z,37.52
2022-08-01T09:29:38.164Z,39.33
2022-08-01T09:32:08.008Z,41.25
2022-08-01T09:34:36.181Z,43.39
2022-08-01T09:37:07.744Z,45.50
2022-08-01T09:39:38.689Z,47.54
2022-08-01T09:42:29.163Z,49.25
2022-08-01T09:44:57.016Z,51.13
2022-08-01T09:47:38.778Z,52.10
2022-08-01T09:50:11.171Z,53.30
2022-08-01T09:52:41.157Z,54.56
2022-08-01T09:55:10.250Z,55.30
2022-08-01T09:57:39.055Z,55.96
2022-08-01T10:00:35.739Z,56.73
2022-08-01T10:03:26.917Z,57.77
2022-08-01T10:05:54.903Z,58.56
2022-08-01T10:08:24.334Z,58.34
2022-08-01T10:11:36.465Z,58.34
2022-08-01T10:14:05.508Z,58.76
2022-08-01T10:16:35.776Z,59.21
2022-08-01T10:19:11.362Z,59.54
2022-08-01T10:21:56.655Z,59.12
2022-08-01T10:24:29.409Z,57.87
2022-08-01T10:27:06.065Z,57.48
2022-08-01T10:29:59.029Z,56.26
2022-08-01T10:32:29.955Z,54.09
2022-08-01T10:34:58.394Z,53.44
2022-08-01T10:37:26.989Z,53.69
2022-08-01T10:40:13.968Z,53.41
2022-08-01T10:42:45.335Z,53.55
2022-08-01T10:45:15.836Z,53.27
2022-08-01T10:48:04.367Z,52.50
2022-08-01T10:50:44.284Z,52.97
2022-08-01T10:53:24.331Z,53.39
2022-08-01T10:56:02.662Z,53.49
2022-08-01T10:58:42.625Z,53.68
2022-08-01T11:01:23.941Z,53.80
2022-08-01T11:04:03.089Z,53.71
2022-08-01T11:06:34.991Z,53.76
2022-08-01T11:09:16.876Z,54.08
2022-08-01T11:12:06.129Z,54.09
2022-08-01T11:14:54.005Z,52.57
2022-08-01T11:17:37.698Z,51.18
2022-08-01T11:20:09.976Z,49.58
2022-08-01T11:22:59.765Z,47.57
2022-08-01T11:26:03.600Z,45.33
2022-08-01T11:28:28.463Z,43.57
2022-08-01T11:31:00.209Z,42.42
2022-08-01T11:33:45.450Z,41.82
2022-08-01T11:36:14.388Z,41.06
2022-08-01T11:39:13.843Z,40.19
2022-08-01T11:41:44.951Z,39.03
2022-08-01T11:44:14.656Z,37.89
2022-08-01T11:47:09.366Z,36.59
2022-08-01T11:49:38.960Z,35.35
2022-08-01T11:52:15.320Z,34.57
2022-08-01T11:54:52.579Z,33.96
2022-08-01T11:57:34.637Z,33.38
2022-08-01T12:00:15.072Z,32.99
2022-08-01T12:02:45.621Z,32.66
2022-08-01T12:05:17.400Z,32.30
2022-08-01T12:07:46.922Z,31.76
2022-08-01T12:10:16.965Z,31.31
2022-08-01T12:12:47.646Z,30.91
2022-08-01T12:15:16.498Z,30.58
2022-08-01T12:17:59.918Z,30.36
2022-08-01T12:20:33.937Z,29.95
2022-08-01T12:23:04.050Z,29.58
2022-08-01T12:25:31.799Z,29.34
2022-08-01T12:28:04.686Z,29.18
2022-08-01T12:30:36.252Z,29.09
2022-08-01T12:33:07.442Z,28.82
2022-08-01T12:35:37.639Z,28.57
2022-08-01T12:38:15.756Z,28.40
2022-08-01T12:40:46.000Z,28.32
2022-08-01T12:43:27.433Z,28.38
2022-08-01T12:45:59.770Z,28.59
2022-08-01T12:48:29.056Z,28.57
2022-08-01T12:51:01.333Z,28.43
2022-08-01T12:53:40.949Z,28.41
2022-08-01T12:56:13.819Z,28.36
2022-08-01T12:58:41.776Z,28.26
2022-08-01T13:01:11.939Z,28.17
2022-08-01T13:03:40.771Z,28.11
2022-08-01T13:06:13.596Z,28.04
2022-08-01T13:08:41.763Z,27.93
2022-08-01T13:11:17.293Z,27.82
2022-08-01T13:13:51.000Z,27.57
2022-08-01T13:16:30.908Z,27.40
2022-08-01T13:19:08.001Z,27.30
2022-08-01T13:21:53.923Z,27.28
2022-08-01T13:24:30.383Z,27.29
2022-08-01T13:27:04.951Z,27.28
2022-08-01T13:29:39.188Z,27.24
2022-08-01T13:32:27.681Z,27.24
2022-08-01T13:35:06.598Z,27.26
2022-08-01T13:37:34.923Z,27.24
2022-08-01T13:40:05.320Z,27.16
2022-08-01T13:42:33.322Z,27.11
2022-08-01T13:45:01.401Z,27.07
2022-08-01T13:47:33.447Z,27.07
2022-08-01T13:50:03.747Z,27.17
2022-08-01T13:52:32.354Z,27.28
2022-08-01T13:55:00.689Z,27.32
2022-08-01T13:57:36.776Z,27.40
2022-08-01T14:00:07.187Z,27.52
2022-08-01T14:02:40.225Z,27.69
2022-08-01T14:05:08.090Z,27.79
2022-08-01T14:07:35.912Z,27.84
2022-08-01T14:10:19.531Z,27.88
2022-08-01T14:12:49.067Z,27.85
2022-08-01T14:15:37.046Z,27.80
2022-08-01T14:18:06.764Z,27.85
2022-08-01T14:20:35.634Z,27.97
2022-08-01T14:23:03.668Z,28.17
2022-08-01T14:26:02.595Z,28.37
2022-08-01T14:28:22.088Z,28.52
2022-08-01T14:30:50.247Z,28.72
2022-08-01T14:33:18.033Z,29.03
2022-08-01T14:36:01.814Z,29.58
2022-08-01T14:38:34.448Z,29.94
2022-08-01T14:41:04.579Z,29.97
2022-08-01T14:43:35.284Z,29.75
2022-08-01T14:46:04.768Z,29.50
2022-08-01T14:48:33.915Z,29.44
2022-08-01T14:51:03.824Z,29.40
2022-08-01T14:53:34.348Z,29.27
2022-08-01T14:56:04.805Z,29.12
2022-08-01T14:58:32.972Z,29.00
2022-08-01T15:01:01.664Z,28.91
2022-08-01T15:03:30.245Z,28.82
2022-08-01T15:05:57.921Z,28.59
2022-08-01T15:08:25.620Z,28.30
2022-08-01T15:10:53.615Z,28.02
2022-08-01T15:13:21.790Z,27.77
2022-08-01T15:15:50.365Z,27.54
2022-08-01T15:18:18.132Z,27.32
2022-08-01T15:20:46.389Z,27.15
2022-08-01T15:23:14.776Z,27.01
2022-08-01T15:25:42.689Z,26.87
2022-08-01T15:28:10.991Z,26.76
2022-08-01T15:30:39.675Z,26.68
2022-08-01T15:33:08.005Z,26.62
2022-08-01T15:35:35.763Z,26.56
2022-08-01T15:38:03.811Z,26.48
2022-08-01T15:40:35.567Z,26.38
2022-08-01T15:43:04.016Z,26.29
2022-08-01T15:45:48.431Z,26.20
2022-08-01T15:48:18.008Z,26.08
2022-08-01T15:50:45.981Z,25.98
2022-08-01T15:53:13.761Z,25.88
2022-08-01T15:55:48.900Z,25.79
2022-08-01T15:58:20.626Z,25.71
2022-08-01T16:00:48.392Z,25.62
2022-08-01T16:03:16.253Z,25.54
2022-08-01T16:05:44.502Z,25.45
2022-08-01T16:08:13.217Z,25.37
2022-08-01T16:10:41.387Z,25.31
2022-08-01T16:13:09.629Z,25.25
2022-08-01T16:15:38.282Z,25.20
2022-08-01T16:18:08.242Z,25.15
2022-08-01T16:20:40.168Z,25.11
2022-08-01T16:23:13.706Z,25.06
2022-08-01T16:25:41.589Z,25.01
2022-08-01T16:28:09.977Z,24.97
2022-08-01T16:31:00.079Z,24.92
2022-08-01T16:33:45.624Z,24.86
2022-08-01T16:36:17.075Z,24.81
2022-08-01T16:38:45.754Z,24.77
2022-08-01T16:41:19.403Z,24.73
2022-08-01T16:43:53.953Z,24.70
2022-08-01T16:46:25.218Z,24.66
2022-08-01T16:48:54.079Z,24.62
2022-08-01T16:51:21.905Z,24.59
2022-08-01T16:53:49.815Z,24.56
2022-08-01T16:56:17.895Z,24.53
2022-08-01T16:58:46.017Z,24.51
2022-08-01T17:02:00.104Z,24.49
2022-08-01T17:04:02.392Z,24.45
2022-08-01T17:06:30.397Z,24.39
2022-08-01T17:08:58.528Z,24.32
2022-08-01T17:11:27.010Z,24.25
2022-08-01T17:13:54.812Z,24.16
2022-08-01T17:16:23.432Z,24.19
2022-08-01T17:18:51.163Z,24.52
2022-08-01T17:21:19.354Z,24.45
2022-08-01T17:23:47.204Z,24.24
2022-08-01T17:26:15.121Z,24.07
2022-08-01T17:28:43.764Z,23.93
2022-08-01T17:31:11.540Z,23.81
2022-08-01T17:33:44.429Z,23.70
2022-08-01T17:36:12.983Z,23.69
2022-08-01T17:38:40.896Z,24.10
2022-08-01T17:41:08.743Z,24.51
2022-08-01T17:43:36.465Z,24.79
2022-08-01T17:46:04.348Z,25.00
2022-08-01T17:48:32.792Z,25.17
2022-08-01T17:51:00.740Z,25.31
2022-08-01T17:53:28.766Z,25.42
2022-08-01T17:55:59.001Z,25.58
2022-08-01T17:58:50.567Z,25.75
2022-08-01T18:01:17.397Z,25.80
2022-08-01T18:03:46.559Z,25.83
2022-08-01T18:06:17.409Z,25.87
2022-08-01T18:08:47.536Z,25.88
2022-08-01T18:11:16.926Z,25.89
2022-08-01T18:13:45.241Z,25.89
2022-08-01T18:16:13.594Z,25.88
2022-08-01T18:18:43.958Z,25.88
2022-08-01T18:21:12.277Z,25.82
2022-08-01T18:23:40.516Z,25.36
2022-08-01T18:26:20.632Z,24.79
2022-08-01T18:28:48.490Z,24.38
2022-08-01T18:31:17.886Z,24.15
2022-08-01T18:33:46.775Z,24.37
2022-08-01T18:36:32.455Z,24.60
2022-08-01T18:39:06.288Z,24.76
2022-08-01T18:41:37.924Z,24.85
2022-08-01T18:44:08.258Z,24.90
2022-08-01T18:46:38.236Z,24.93
2022-08-01T18:49:10.543Z,24.94
2022-08-01T18:51:44.326Z,24.94
2022-08-01T18:54:14.409Z,24.95
2022-08-01T18:56:43.324Z,24.96
2022-08-01T18:59:11.958Z,24.95
2022-08-01T19:01:40.221Z,24.96
2022-08-01T19:04:09.047Z,24.94
2022-08-01T19:06:37.905Z,24.91
2022-08-01T19:09:06.723Z,24.88
2022-08-01T19:11:34.949Z,24.85
2022-08-01T19:14:03.320Z,24.85
2022-08-01T19:16:31.620Z,24.83
2022-08-01T19:19:04.494Z,24.82
2022-08-01T19:21:33.079Z,24.80
2022-08-01T19:24:23.179Z,24.68
2022-08-01T19:26:56.659Z,24.15
2022-08-01T19:29:35.415Z,23.73
2022-08-01T19:32:06.454Z,23.86
2022-08-01T19:34:50.119Z,24.04
2022-08-01T19:37:18.105Z,24.14
2022-08-01T19:39:46.197Z,24.19
2022-08-01T19:42:14.080Z,24.23
2022-08-01T19:44:43.030Z,24.24
2022-08-01T19:47:13.013Z,24.24
2022-08-01T19:49:40.864Z,24.24
2022-08-01T19:52:09.802Z,24.23
2022-08-01T19:54:38.686Z,24.23
2022-08-01T19:57:08.027Z,24.23
2022-08-01T19:59:36.924Z,24.23
2022-08-01T20:02:05.711Z,24.23
2022-08-01T20:04:34.923Z,24.22
2022-08-01T20:07:03.663Z,24.21
2022-08-01T20:09:33.482Z,24.18
2022-08-01T20:12:01.403Z,24.13
2022-08-01T20:14:29.234Z,24.09
2022-08-01T20:16:57.177Z,24.07
2022-08-01T20:19:26.067Z,24.07
2022-08-01T20:22:04.514Z,24.04
2022-08-01T20:24:45.998Z,24.00
2022-08-01T20:27:15.647Z,23.98
2022-08-01T20:29:44.945Z,23.97
2022-08-01T20:32:13.182Z,23.95
2022-08-01T20:34:41.441Z,23.93
2022-08-01T20:37:13.264Z,23.92
2022-08-01T20:39:44.251Z,23.90
2022-08-01T20:42:14.161Z,23.89
2022-08-01T20:44:42.848Z,23.88
2022-08-01T20:47:11.117Z,23.86
2022-08-01T20:49:40.918Z,23.83
2022-08-01T20:52:11.799Z,23.77
2022-08-01T20:54:43.711Z,23.72
2022-08-01T20:57:26.244Z,23.70
2022-08-01T21:00:05.313Z,23.68
2022-08-01T21:03:02.710Z,23.65
2022-08-01T21:05:31.816Z,23.62
2022-08-01T21:08:14.207Z,23.61
2022-08-01T21:10:44.250Z,23.59
2022-08-01T21:13:21.347Z,23.58
2022-08-01T21:16:11.781Z,23.58
2022-08-01T21:21:55.428Z,23.57
2022-08-01T21:24:23.783Z,23.55
2022-08-01T21:26:53.544Z,23.54
2022-08-01T21:29:23.063Z,23.54
2022-08-01T21:32:11.687Z,23.54
2022-08-01T21:34:40.127Z,23.53
2022-08-01T21:37:09.303Z,23.53
2022-08-01T21:39:38.222Z,23.52
2022-08-01T21:42:09.234Z,23.50
2022-08-01T21:44:44.095Z,23.48
2022-08-01T21:47:12.479Z,23.47
2022-08-01T21:49:41.438Z,23.46
2022-08-01T21:52:15.352Z,23.44
2022-08-01T21:54:48.518Z,23.43
2022-08-01T21:57:23.620Z,23.43
2022-08-01T22:00:05.665Z,23.42
2022-08-01T22:02:37.974Z,23.42
2022-08-01T22:05:10.630Z,23.40
2022-08-01T22:07:45.905Z,23.40
2022-08-01T22:10:16.392Z,23.39
2022-08-01T22:12:45.306Z,23.39
2022-08-01T22:15:14.391Z,23.39
2022-08-01T22:17:42.384Z,23.37
2022-08-01T22:20:10.801Z,23.35
2022-08-01T22:22:51.219Z,23.33
2022-08-01T22:25:21.479Z,23.32
2022-08-01T22:28:05.844Z,23.32
2022-08-01T22:30:41.993Z,23.33
2022-08-01T22:33:17.154Z,23.35
2022-08-01T22:35:50.934Z,23.37
2022-08-01T22:38:20.833Z,23.38
2022-08-01T22:41:01.359Z,23.39
2022-08-01T22:43:56.738Z,23.40
2022-08-01T22:46:37.682Z,23.41
2022-08-01T22:49:31.130Z,23.43
2022-08-01T22:52:12.709Z,23.44
2022-08-01T22:54:44.567Z,23.43
2022-08-01T22:57:16.567Z,23.42
2022-08-01T23:00:01.945Z,23.43
2022-08-01T23:02:31.904Z,23.40
2022-08-01T23:05:08.084Z,23.40
2022-08-01T23:07:39.724Z,23.40
2022-08-01T23:10:08.693Z,23.40
2022-08-01T23:12:37.152Z,23.39
2022-08-01T23:15:05.683Z,23.37
2022-08-01T23:17:33.657Z,23.35
2022-08-01T23:20:03.947Z,23.32
2022-08-01T23:22:34.069Z,23.31
2022-08-01T23:25:06.475Z,23.30
2022-08-01T23:27:55.738Z,23.31
2022-08-01T23:30:35.063Z,23.29
2022-08-01T23:33:03.327Z,23.28
2022-08-01T23:35:31.504Z,23.26
2022-08-01T23:38:03.390Z,23.27
2022-08-01T23:40:32.584Z,23.26
2022-08-01T23:43:01.357Z,23.24
2022-08-01T23:46:02.840Z,23.20
2022-08-01T23:48:17.703Z,23.21
2022-08-01T23:50:45.721Z,23.21
2022-08-01T23:53:13.762Z,23.19
2022-08-01T23:55:44.072Z,23.16
2022-08-01T23:58:12.372Z,23.13
